sensor_id;sensor_type;location;lat;lon;timestamp;P1;durP1;ratioP1;P2;durP2;ratioP2
40787;SDS011;26497;52.494;7.546;2022-10-31T00:00:55;131.23;;;44.17;;
40787;SDS011;26497;52.494;7.546;2022-10-31T00:03:22;134.15;;;43.78;;
40787;SDS011;26497;52.494;7.546;2022-10-31T00:05:51;111.97;;;39.95;;
40787;SDS011;26497;52.494;7.546;2022-10-31T00:08:18;101.05;;;37.72;;
40787;SDS011;26497;52.494;7.546;2022-10-31T00:10:46;104.25;;;37.70;;
40787;SDS011;26497;52.494;7.546;2022-10-31T00:13:13;106.97;;;37.47;;
40787;SDS011;26497;52.494;7.546;2022-10-31T00:15:41;112.00;;;37.13;;
40787;SDS011;26497;52.494;7.546;2022-10-31T00:18:08;103.50;;;39.40;;
40787;SDS011;26497;52.494;7.546;2022-10-31T00:20:37;104.45;;;34.72;;
40787;SDS011;26497;52.494;7.546;2022-10-31T00:23:05;108.57;;;36.40;;
40787;SDS011;26497;52.494;7.546;2022-10-31T00:25:33;101.43;;;37.63;;
40787;SDS011;26497;52.494;7.546;2022-10-31T00:28:03;110.68;;;37.03;;
40787;SDS011;26497;52.494;7.546;2022-10-31T00:30:32;107.22;;;37.45;;
40787;SDS011;26497;52.494;7.546;2022-10-31T00:32:59;112.65;;;40.00;;
40787;SDS011;26497;52.494;7.546;2022-10-31T00:35:26;108.10;;;38.60;;
40787;SDS011;26497;52.494;7.546;2022-10-31T00:37:53;105.72;;;37.53;;
40787;SDS011;26497;52.494;7.546;2022-10-31T00:40:20;113.85;;;40.92;;
40787;SDS011;26497;52.494;7.546;2022-10-31T00:42:47;106.63;;;39.47;;
40787;SDS011;26497;52.494;7.546;2022-10-31T00:45:15;97.85;;;35.15;;
40787;SDS011;26497;52.494;7.546;2022-10-31T00:47:42;97.78;;;35.00;;
40787;SDS011;26497;52.494;7.546;2022-10-31T00:50:09;96.72;;;35.58;;
40787;SDS011;26497;52.494;7.546;2022-10-31T00:52:36;112.70;;;37.60;;
40787;SDS011;26497;52.494;7.546;2022-10-31T00:55:03;97.75;;;36.50;;
40787;SDS011;26497;52.494;7.546;2022-10-31T00:57:30;110.13;;;39.28;;
40787;SDS011;26497;52.494;7.546;2022-10-31T00:59:57;139.00;;;43.35;;
40787;SDS011;26497;52.494;7.546;2022-10-31T01:02:25;121.70;;;42.67;;
40787;SDS011;26497;52.494;7.546;2022-10-31T01:04:52;129.48;;;42.45;;
40787;SDS011;26497;52.494;7.546;2022-10-31T01:07:19;138.73;;;43.35;;
40787;SDS011;26497;52.494;7.546;2022-10-31T01:09:47;144.77;;;45.22;;
40787;SDS011;26497;52.494;7.546;2022-10-31T01:12:14;125.80;;;41.20;;
40787;SDS011;26497;52.494;7.546;2022-10-31T01:14:42;127.82;;;39.80;;
40787;SDS011;26497;52.494;7.546;2022-10-31T01:17:10;109.85;;;36.55;;
40787;SDS011;26497;52.494;7.546;2022-10-31T01:19:39;104.30;;;35.65;;
40787;SDS011;26497;52.494;7.546;2022-10-31T01:22:05;102.68;;;36.45;;
40787;SDS011;26497;52.494;7.546;2022-10-31T01:24:33;102.15;;;37.53;;
40787;SDS011;26497;52.494;7.546;2022-10-31T01:27:00;143.45;;;43.05;;
40787;SDS011;26497;52.494;7.546;2022-10-31T01:29:27;133.52;;;45.30;;
40787;SDS011;26497;52.494;7.546;2022-10-31T01:31:54;161.38;;;49.47;;
40787;SDS011;26497;52.494;7.546;2022-10-31T01:34:21;157.68;;;48.17;;
40787;SDS011;26497;52.494;7.546;2022-10-31T01:36:49;149.55;;;44.65;;
40787;SDS011;26497;52.494;7.546;2022-10-31T01:39:17;121.28;;;40.33;;
40787;SDS011;26497;52.494;7.546;2022-10-31T01:41:46;142.88;;;40.95;;
40787;SDS011;26497;52.494;7.546;2022-10-31T01:47:22;110.55;;;36.53;;
40787;SDS011;26497;52.494;7.546;2022-10-31T01:50:03;118.53;;;40.13;;
40787;SDS011;26497;52.494;7.546;2022-10-31T01:52:38;134.93;;;41.38;;
40787;SDS011;26497;52.494;7.546;2022-10-31T01:55:11;142.80;;;45.95;;
40787;SDS011;26497;52.494;7.546;2022-10-31T01:57:44;158.63;;;47.08;;
40787;SDS011;26497;52.494;7.546;2022-10-31T02:00:14;158.90;;;48.45;;
40787;SDS011;26497;52.494;7.546;2022-10-31T02:02:42;166.88;;;47.80;;
40787;SDS011;26497;52.494;7.546;2022-10-31T02:05:12;164.88;;;49.20;;
40787;SDS011;26497;52.494;7.546;2022-10-31T02:07:45;157.15;;;46.45;;
40787;SDS011;26497;52.494;7.546;2022-10-31T02:10:20;157.38;;;42.95;;
40787;SDS011;26497;52.494;7.546;2022-10-31T02:12:49;129.55;;;40.83;;
40787;SDS011;26497;52.494;7.546;2022-10-31T02:15:18;135.18;;;43.85;;
40787;SDS011;26497;52.494;7.546;2022-10-31T02:17:45;114.55;;;39.95;;
40787;SDS011;26497;52.494;7.546;2022-10-31T02:20:14;125.68;;;35.58;;
40787;SDS011;26497;52.494;7.546;2022-10-31T02:23:00;100.47;;;31.00;;
40787;SDS011;26497;52.494;7.546;2022-10-31T02:26:11;99.43;;;32.20;;
40787;SDS011;26497;52.494;7.546;2022-10-31T02:29:16;117.78;;;36.47;;
40787;SDS011;26497;52.494;7.546;2022-10-31T02:32:13;135.75;;;41.40;;
40787;SDS011;26497;52.494;7.546;2022-10-31T02:34:52;147.77;;;40.78;;
40787;SDS011;26497;52.494;7.546;2022-10-31T02:37:32;159.05;;;42.80;;
40787;SDS011;26497;52.494;7.546;2022-10-31T02:40:09;143.75;;;42.63;;
40787;SDS011;26497;52.494;7.546;2022-10-31T02:42:46;169.23;;;47.20;;
40787;SDS011;26497;52.494;7.546;2022-10-31T02:45:24;154.88;;;41.28;;
40787;SDS011;26497;52.494;7.546;2022-10-31T02:47:58;115.35;;;37.47;;
40787;SDS011;26497;52.494;7.546;2022-10-31T02:50:30;119.13;;;38.20;;
40787;SDS011;26497;52.494;7.546;2022-10-31T02:53:01;154.50;;;42.20;;
40787;SDS011;26497;52.494;7.546;2022-10-31T02:58:25;165.77;;;44.90;;
40787;SDS011;26497;52.494;7.546;2022-10-31T03:04:12;182.98;;;47.60;;
40787;SDS011;26497;52.494;7.546;2022-10-31T03:07:11;277.38;;;48.00;;
40787;SDS011;26497;52.494;7.546;2022-10-31T03:09:51;230.23;;;44.25;;
40787;SDS011;26497;52.494;7.546;2022-10-31T03:12:29;127.97;;;37.85;;
40787;SDS011;26497;52.494;7.546;2022-10-31T03:15:10;181.82;;;42.22;;
40787;SDS011;26497;52.494;7.546;2022-10-31T03:17:47;140.05;;;39.70;;
40787;SDS011;26497;52.494;7.546;2022-10-31T03:20:24;156.07;;;39.40;;
40787;SDS011;26497;52.494;7.546;2022-10-31T03:22:57;123.38;;;36.28;;
40787;SDS011;26497;52.494;7.546;2022-10-31T03:25:27;138.90;;;41.53;;
40787;SDS011;26497;52.494;7.546;2022-10-31T03:27:56;130.20;;;35.60;;
40787;SDS011;26497;52.494;7.546;2022-10-31T03:30:25;122.95;;;35.80;;
40787;SDS011;26497;52.494;7.546;2022-10-31T03:32:53;114.45;;;37.53;;
40787;SDS011;26497;52.494;7.546;2022-10-31T03:35:24;111.25;;;34.85;;
40787;SDS011;26497;52.494;7.546;2022-10-31T03:37:53;120.03;;;35.15;;
40787;SDS011;26497;52.494;7.546;2022-10-31T03:40:22;141.40;;;39.22;;
40787;SDS011;26497;52.494;7.546;2022-10-31T03:42:54;110.97;;;33.22;;
40787;SDS011;26497;52.494;7.546;2022-10-31T03:45:24;92.18;;;29.88;;
40787;SDS011;26497;52.494;7.546;2022-10-31T03:50:25;85.38;;;26.92;;
40787;SDS011;26497;52.494;7.546;2022-10-31T03:53:02;91.07;;;28.23;;
40787;SDS011;26497;52.494;7.546;2022-10-31T03:55:37;126.30;;;36.33;;
40787;SDS011;26497;52.494;7.546;2022-10-31T03:58:09;104.45;;;33.47;;
40787;SDS011;26497;52.494;7.546;2022-10-31T04:00:42;97.80;;;32.83;;
40787;SDS011;26497;52.494;7.546;2022-10-31T04:03:12;127.38;;;38.10;;
40787;SDS011;26497;52.494;7.546;2022-10-31T04:05:45;116.53;;;36.25;;
40787;SDS011;26497;52.494;7.546;2022-10-31T04:08:15;113.00;;;37.53;;
40787;SDS011;26497;52.494;7.546;2022-10-31T04:10:47;108.45;;;34.42;;
40787;SDS011;26497;52.494;7.546;2022-10-31T04:13:17;139.13;;;41.05;;
40787;SDS011;26497;52.494;7.546;2022-10-31T04:15:48;125.18;;;37.30;;
40787;SDS011;26497;52.494;7.546;2022-10-31T04:18:18;114.63;;;36.30;;
40787;SDS011;26497;52.494;7.546;2022-10-31T04:20:46;110.50;;;36.92;;
40787;SDS011;26497;52.494;7.546;2022-10-31T04:23:16;132.30;;;42.00;;
40787;SDS011;26497;52.494;7.546;2022-10-31T04:25:51;128.57;;;36.65;;
40787;SDS011;26497;52.494;7.546;2022-10-31T04:28:18;119.43;;;36.65;;
40787;SDS011;26497;52.494;7.546;2022-10-31T04:30:45;145.90;;;40.13;;
40787;SDS011;26497;52.494;7.546;2022-10-31T04:33:12;174.18;;;45.33;;
40787;SDS011;26497;52.494;7.546;2022-10-31T04:35:39;157.45;;;44.38;;
40787;SDS011;26497;52.494;7.546;2022-10-31T04:38:08;147.57;;;38.45;;
40787;SDS011;26497;52.494;7.546;2022-10-31T04:44:15;139.32;;;37.47;;
40787;SDS011;26497;52.494;7.546;2022-10-31T04:46:42;136.90;;;38.92;;
40787;SDS011;26497;52.494;7.546;2022-10-31T04:49:09;125.97;;;35.42;;
40787;SDS011;26497;52.494;7.546;2022-10-31T04:51:36;105.25;;;32.40;;
40787;SDS011;26497;52.494;7.546;2022-10-31T04:54:05;159.30;;;41.70;;
40787;SDS011;26497;52.494;7.546;2022-10-31T04:56:32;134.55;;;40.13;;
40787;SDS011;26497;52.494;7.546;2022-10-31T04:58:59;117.18;;;35.88;;
40787;SDS011;26497;52.494;7.546;2022-10-31T05:01:26;101.72;;;32.03;;
40787;SDS011;26497;52.494;7.546;2022-10-31T05:03:54;117.88;;;30.38;;
40787;SDS011;26497;52.494;7.546;2022-10-31T05:06:21;100.38;;;31.77;;
40787;SDS011;26497;52.494;7.546;2022-10-31T05:08:48;122.72;;;33.08;;
40787;SDS011;26497;52.494;7.546;2022-10-31T05:11:16;103.20;;;30.88;;
40787;SDS011;26497;52.494;7.546;2022-10-31T05:13:43;138.93;;;36.78;;
40787;SDS011;26497;52.494;7.546;2022-10-31T05:16:10;126.28;;;38.88;;
40787;SDS011;26497;52.494;7.546;2022-10-31T05:18:37;148.65;;;42.03;;
40787;SDS011;26497;52.494;7.546;2022-10-31T05:21:04;195.05;;;48.50;;
40787;SDS011;26497;52.494;7.546;2022-10-31T05:23:31;140.68;;;41.05;;
40787;SDS011;26497;52.494;7.546;2022-10-31T05:25:58;164.05;;;41.85;;
40787;SDS011;26497;52.494;7.546;2022-10-31T05:32:08;114.40;;;34.33;;
40787;SDS011;26497;52.494;7.546;2022-10-31T05:34:34;128.43;;;39.03;;
40787;SDS011;26497;52.494;7.546;2022-10-31T05:37:01;121.10;;;36.15;;
40787;SDS011;26497;52.494;7.546;2022-10-31T05:39:28;135.48;;;38.20;;
40787;SDS011;26497;52.494;7.546;2022-10-31T05:41:55;138.07;;;39.50;;
40787;SDS011;26497;52.494;7.546;2022-10-31T05:44:22;123.57;;;37.35;;
40787;SDS011;26497;52.494;7.546;2022-10-31T05:46:49;103.65;;;31.58;;
40787;SDS011;26497;52.494;7.546;2022-10-31T05:49:18;135.23;;;34.83;;
40787;SDS011;26497;52.494;7.546;2022-10-31T05:51:45;146.65;;;37.10;;
40787;SDS011;26497;52.494;7.546;2022-10-31T05:54:12;173.60;;;34.60;;
40787;SDS011;26497;52.494;7.546;2022-10-31T05:56:39;91.05;;;31.23;;
40787;SDS011;26497;52.494;7.546;2022-10-31T05:59:06;167.45;;;38.22;;
40787;SDS011;26497;52.494;7.546;2022-10-31T06:01:33;251.30;;;45.67;;
40787;SDS011;26497;52.494;7.546;2022-10-31T06:04:00;208.93;;;44.33;;
40787;SDS011;26497;52.494;7.546;2022-10-31T06:06:28;132.15;;;36.13;;
40787;SDS011;26497;52.494;7.546;2022-10-31T06:08:55;100.45;;;32.47;;
40787;SDS011;26497;52.494;7.546;2022-10-31T06:11:22;124.57;;;34.22;;
40787;SDS011;26497;52.494;7.546;2022-10-31T06:13:50;123.07;;;33.30;;
40787;SDS011;26497;52.494;7.546;2022-10-31T06:16:17;168.15;;;44.33;;
40787;SDS011;26497;52.494;7.546;2022-10-31T06:18:45;153.05;;;38.88;;
40787;SDS011;26497;52.494;7.546;2022-10-31T06:21:12;160.73;;;38.13;;
40787;SDS011;26497;52.494;7.546;2022-10-31T06:23:40;153.45;;;37.40;;
40787;SDS011;26497;52.494;7.546;2022-10-31T06:26:07;176.30;;;41.08;;
40787;SDS011;26497;52.494;7.546;2022-10-31T06:28:34;219.15;;;47.17;;
40787;SDS011;26497;52.494;7.546;2022-10-31T06:31:01;321.05;;;50.28;;
40787;SDS011;26497;52.494;7.546;2022-10-31T06:33:28;101.00;;;33.35;;
40787;SDS011;26497;52.494;7.546;2022-10-31T06:35:55;101.95;;;29.05;;
40787;SDS011;26497;52.494;7.546;2022-10-31T06:38:22;101.85;;;29.42;;
40787;SDS011;26497;52.494;7.546;2022-10-31T06:40:50;125.63;;;30.98;;
40787;SDS011;26497;52.494;7.546;2022-10-31T06:43:17;159.43;;;33.70;;
40787;SDS011;26497;52.494;7.546;2022-10-31T06:45:44;104.22;;;33.67;;
40787;SDS011;26497;52.494;7.546;2022-10-31T06:48:11;124.43;;;36.92;;
40787;SDS011;26497;52.494;7.546;2022-10-31T06:50:38;78.40;;;29.42;;
40787;SDS011;26497;52.494;7.546;2022-10-31T06:53:05;68.80;;;30.85;;
40787;SDS011;26497;52.494;7.546;2022-10-31T06:55:32;105.07;;;34.08;;
40787;SDS011;26497;52.494;7.546;2022-10-31T06:58:00;94.93;;;34.75;;
40787;SDS011;26497;52.494;7.546;2022-10-31T07:00:28;92.57;;;33.00;;
40787;SDS011;26497;52.494;7.546;2022-10-31T07:02:56;62.53;;;29.35;;
40787;SDS011;26497;52.494;7.546;2022-10-31T07:05:25;64.45;;;29.15;;
40787;SDS011;26497;52.494;7.546;2022-10-31T07:07:54;215.32;;;45.97;;
40787;SDS011;26497;52.494;7.546;2022-10-31T07:10:23;114.82;;;37.10;;
40787;SDS011;26497;52.494;7.546;2022-10-31T07:12:53;73.88;;;30.95;;
40787;SDS011;26497;52.494;7.546;2022-10-31T07:15:22;75.95;;;30.60;;
40787;SDS011;26497;52.494;7.546;2022-10-31T07:17:49;67.05;;;26.70;;
40787;SDS011;26497;52.494;7.546;2022-10-31T07:20:16;57.15;;;26.30;;
40787;SDS011;26497;52.494;7.546;2022-10-31T07:22:44;84.10;;;31.00;;
40787;SDS011;26497;52.494;7.546;2022-10-31T07:25:11;62.30;;;26.77;;
40787;SDS011;26497;52.494;7.546;2022-10-31T07:27:38;74.15;;;29.60;;
40787;SDS011;26497;52.494;7.546;2022-10-31T07:30:07;58.53;;;27.75;;
40787;SDS011;26497;52.494;7.546;2022-10-31T07:32:38;109.47;;;32.17;;
40787;SDS011;26497;52.494;7.546;2022-10-31T07:35:06;69.15;;;25.88;;
40787;SDS011;26497;52.494;7.546;2022-10-31T07:37:34;71.63;;;26.85;;
40787;SDS011;26497;52.494;7.546;2022-10-31T07:40:02;56.67;;;25.17;;
40787;SDS011;26497;52.494;7.546;2022-10-31T07:42:34;67.63;;;27.50;;
40787;SDS011;26497;52.494;7.546;2022-10-31T07:45:01;61.63;;;26.35;;
40787;SDS011;26497;52.494;7.546;2022-10-31T07:47:29;56.22;;;24.50;;
40787;SDS011;26497;52.494;7.546;2022-10-31T07:50:05;60.40;;;25.88;;
40787;SDS011;26497;52.494;7.546;2022-10-31T07:52:33;87.75;;;30.30;;
40787;SDS011;26497;52.494;7.546;2022-10-31T07:55:00;63.17;;;25.85;;
40787;SDS011;26497;52.494;7.546;2022-10-31T07:57:28;58.75;;;24.73;;
40787;SDS011;26497;52.494;7.546;2022-10-31T07:59:55;67.85;;;27.63;;
40787;SDS011;26497;52.494;7.546;2022-10-31T08:02:22;69.28;;;26.05;;
40787;SDS011;26497;52.494;7.546;2022-10-31T08:04:51;49.90;;;23.65;;
40787;SDS011;26497;52.494;7.546;2022-10-31T08:07:18;67.05;;;26.05;;
40787;SDS011;26497;52.494;7.546;2022-10-31T08:09:45;63.90;;;26.83;;
40787;SDS011;26497;52.494;7.546;2022-10-31T08:12:13;51.42;;;25.35;;
40787;SDS011;26497;52.494;7.546;2022-10-31T08:14:40;61.50;;;25.90;;
40787;SDS011;26497;52.494;7.546;2022-10-31T08:17:07;56.72;;;24.73;;
40787;SDS011;26497;52.494;7.546;2022-10-31T08:19:34;73.05;;;27.05;;
40787;SDS011;26497;52.494;7.546;2022-10-31T08:22:03;66.55;;;27.45;;
40787;SDS011;26497;52.494;7.546;2022-10-31T08:24:29;48.65;;;22.50;;
40787;SDS011;26497;52.494;7.546;2022-10-31T08:26:56;47.08;;;22.90;;
40787;SDS011;26497;52.494;7.546;2022-10-31T08:29:23;58.13;;;24.33;;
40787;SDS011;26497;52.494;7.546;2022-10-31T08:31:50;54.92;;;23.50;;
40787;SDS011;26497;52.494;7.546;2022-10-31T08:34:17;52.03;;;24.90;;
40787;SDS011;26497;52.494;7.546;2022-10-31T08:36:44;37.28;;;20.35;;
40787;SDS011;26497;52.494;7.546;2022-10-31T08:39:13;32.33;;;19.33;;
40787;SDS011;26497;52.494;7.546;2022-10-31T08:41:40;34.83;;;19.20;;
40787;SDS011;26497;52.494;7.546;2022-10-31T08:44:06;37.53;;;20.48;;
40787;SDS011;26497;52.494;7.546;2022-10-31T08:46:33;41.45;;;20.08;;
40787;SDS011;26497;52.494;7.546;2022-10-31T08:49:00;36.38;;;21.08;;
40787;SDS011;26497;52.494;7.546;2022-10-31T08:51:28;34.47;;;18.35;;
40787;SDS011;26497;52.494;7.546;2022-10-31T08:53:54;27.92;;;16.02;;
40787;SDS011;26497;52.494;7.546;2022-10-31T08:56:23;29.45;;;16.60;;
40787;SDS011;26497;52.494;7.546;2022-10-31T08:58:52;25.77;;;14.13;;
40787;SDS011;26497;52.494;7.546;2022-10-31T09:01:19;31.25;;;15.00;;
40787;SDS011;26497;52.494;7.546;2022-10-31T09:03:46;18.30;;;12.85;;
40787;SDS011;26497;52.494;7.546;2022-10-31T09:06:13;19.42;;;12.85;;
40787;SDS011;26497;52.494;7.546;2022-10-31T09:08:40;20.45;;;11.80;;
40787;SDS011;26497;52.494;7.546;2022-10-31T09:11:07;17.88;;;11.77;;
40787;SDS011;26497;52.494;7.546;2022-10-31T09:13:35;14.82;;;10.23;;
40787;SDS011;26497;52.494;7.546;2022-10-31T09:16:02;13.98;;;10.82;;
40787;SDS011;26497;52.494;7.546;2022-10-31T09:18:30;16.42;;;10.07;;
40787;SDS011;26497;52.494;7.546;2022-10-31T09:20:57;20.08;;;10.52;;
40787;SDS011;26497;52.494;7.546;2022-10-31T09:23:25;18.13;;;9.70;;
40787;SDS011;26497;52.494;7.546;2022-10-31T09:25:53;13.18;;;9.57;;
40787;SDS011;26497;52.494;7.546;2022-10-31T09:28:21;17.88;;;8.68;;
40787;SDS011;26497;52.494;7.546;2022-10-31T09:30:51;10.07;;;8.23;;
40787;SDS011;26497;52.494;7.546;2022-10-31T09:33:20;10.35;;;7.75;;
40787;SDS011;26497;52.494;7.546;2022-10-31T09:35:47;9.98;;;6.97;;
40787;SDS011;26497;52.494;7.546;2022-10-31T09:38:15;9.98;;;7.72;;
40787;SDS011;26497;52.494;7.546;2022-10-31T09:40:46;9.52;;;6.75;;
40787;SDS011;26497;52.494;7.546;2022-10-31T09:43:15;7.70;;;6.97;;
40787;SDS011;26497;52.494;7.546;2022-10-31T09:45:55;9.50;;;7.03;;
40787;SDS011;26497;52.494;7.546;2022-10-31T09:48:31;9.90;;;8.00;;
40787;SDS011;26497;52.494;7.546;2022-10-31T09:51:15;10.25;;;6.95;;
40787;SDS011;26497;52.494;7.546;2022-10-31T09:53:48;9.00;;;7.05;;
40787;SDS011;26497;52.494;7.546;2022-10-31T09:56:21;10.85;;;8.80;;
40787;SDS011;26497;52.494;7.546;2022-10-31T09:58:50;12.25;;;8.55;;
40787;SDS011;26497;52.494;7.546;2022-10-31T10:01:32;16.80;;;8.27;;
40787;SDS011;26497;52.494;7.546;2022-10-31T10:04:14;11.13;;;7.45;;
40787;SDS011;26497;52.494;7.546;2022-10-31T10:06:57;11.95;;;7.93;;
40787;SDS011;26497;52.494;7.546;2022-10-31T10:09:26;11.25;;;8.20;;
40787;SDS011;26497;52.494;7.546;2022-10-31T10:11:55;9.93;;;7.30;;
40787;SDS011;26497;52.494;7.546;2022-10-31T10:14:38;9.63;;;6.78;;
40787;SDS011;26497;52.494;7.546;2022-10-31T10:17:24;20.35;;;7.65;;
40787;SDS011;26497;52.494;7.546;2022-10-31T10:20:18;8.95;;;6.68;;
40787;SDS011;26497;52.494;7.546;2022-10-31T10:22:57;7.63;;;6.57;;
40787;SDS011;26497;52.494;7.546;2022-10-31T10:25:45;9.50;;;5.60;;
40787;SDS011;26497;52.494;7.546;2022-10-31T10:28:19;16.23;;;8.68;;
40787;SDS011;26497;52.494;7.546;2022-10-31T10:30:53;14.25;;;7.35;;
40787;SDS011;26497;52.494;7.546;2022-10-31T10:33:28;11.00;;;6.72;;
40787;SDS011;26497;52.494;7.546;2022-10-31T10:36:00;12.25;;;6.88;;
40787;SDS011;26497;52.494;7.546;2022-10-31T10:38:33;8.77;;;7.20;;
40787;SDS011;26497;52.494;7.546;2022-10-31T10:41:06;14.70;;;8.40;;
40787;SDS011;26497;52.494;7.546;2022-10-31T10:43:40;13.20;;;8.25;;
40787;SDS011;26497;52.494;7.546;2022-10-31T10:46:16;13.93;;;8.02;;
40787;SDS011;26497;52.494;7.546;2022-10-31T10:49:08;12.38;;;8.15;;
40787;SDS011;26497;52.494;7.546;2022-10-31T10:51:44;9.83;;;7.17;;
40787;SDS011;26497;52.494;7.546;2022-10-31T10:54:21;13.98;;;7.28;;
40787;SDS011;26497;52.494;7.546;2022-10-31T10:57:20;18.00;;;8.55;;
40787;SDS011;26497;52.494;7.546;2022-10-31T10:59:57;8.40;;;7.13;;
40787;SDS011;26497;52.494;7.546;2022-10-31T11:02:31;9.73;;;7.10;;
40787;SDS011;26497;52.494;7.546;2022-10-31T11:05:00;14.38;;;7.22;;
40787;SDS011;26497;52.494;7.546;2022-10-31T11:07:37;14.38;;;7.40;;
40787;SDS011;26497;52.494;7.546;2022-10-31T11:10:05;14.43;;;6.78;;
40787;SDS011;26497;52.494;7.546;2022-10-31T11:12:40;14.15;;;7.20;;
40787;SDS011;26497;52.494;7.546;2022-10-31T11:15:17;13.65;;;6.18;;
40787;SDS011;26497;52.494;7.546;2022-10-31T11:17:48;9.93;;;8.05;;
40787;SDS011;26497;52.494;7.546;2022-10-31T11:20:25;14.90;;;7.57;;
40787;SDS011;26497;52.494;7.546;2022-10-31T11:23:00;13.90;;;7.82;;
40787;SDS011;26497;52.494;7.546;2022-10-31T11:25:31;10.82;;;8.55;;
40787;SDS011;26497;52.494;7.546;2022-10-31T11:27:58;16.52;;;7.45;;
40787;SDS011;26497;52.494;7.546;2022-10-31T11:30:26;10.57;;;7.35;;
40787;SDS011;26497;52.494;7.546;2022-10-31T11:32:54;13.60;;;6.80;;
40787;SDS011;26497;52.494;7.546;2022-10-31T11:35:23;10.90;;;7.78;;
40787;SDS011;26497;52.494;7.546;2022-10-31T11:37:53;22.88;;;9.10;;
40787;SDS011;26497;52.494;7.546;2022-10-31T11:40:24;11.52;;;7.72;;
40787;SDS011;26497;52.494;7.546;2022-10-31T11:42:54;16.60;;;7.40;;
40787;SDS011;26497;52.494;7.546;2022-10-31T11:45:28;23.00;;;8.75;;
40787;SDS011;26497;52.494;7.546;2022-10-31T11:47:58;15.48;;;8.20;;
40787;SDS011;26497;52.494;7.546;2022-10-31T11:50:31;9.65;;;7.50;;
40787;SDS011;26497;52.494;7.546;2022-10-31T11:53:03;13.80;;;7.57;;
40787;SDS011;26497;52.494;7.546;2022-10-31T11:55:40;9.20;;;7.45;;
40787;SDS011;26497;52.494;7.546;2022-10-31T11:58:19;10.55;;;7.38;;
40787;SDS011;26497;52.494;7.546;2022-10-31T12:00:48;8.88;;;6.43;;
40787;SDS011;26497;52.494;7.546;2022-10-31T12:03:24;13.00;;;7.03;;
40787;SDS011;26497;52.494;7.546;2022-10-31T12:06:10;10.23;;;6.20;;
40787;SDS011;26497;52.494;7.546;2022-10-31T12:08:42;10.73;;;6.68;;
40787;SDS011;26497;52.494;7.546;2022-10-31T12:11:12;11.65;;;6.35;;
40787;SDS011;26497;52.494;7.546;2022-10-31T12:13:57;10.50;;;5.65;;
40787;SDS011;26497;52.494;7.546;2022-10-31T12:16:39;13.02;;;5.88;;
40787;SDS011;26497;52.494;7.546;2022-10-31T12:19:16;7.60;;;4.88;;
40787;SDS011;26497;52.494;7.546;2022-10-31T12:22:02;7.15;;;5.00;;
40787;SDS011;26497;52.494;7.546;2022-10-31T12:25:02;11.55;;;5.15;;
40787;SDS011;26497;52.494;7.546;2022-10-31T12:28:00;8.48;;;5.03;;
40787;SDS011;26497;52.494;7.546;2022-10-31T12:30:57;12.73;;;6.55;;
40787;SDS011;26497;52.494;7.546;2022-10-31T12:33:37;15.02;;;6.90;;
40787;SDS011;26497;52.494;7.546;2022-10-31T12:36:21;14.40;;;7.40;;
40787;SDS011;26497;52.494;7.546;2022-10-31T12:39:24;12.80;;;7.30;;
40787;SDS011;26497;52.494;7.546;2022-10-31T12:42:04;18.63;;;8.65;;
40787;SDS011;26497;52.494;7.546;2022-10-31T12:44:48;19.98;;;8.13;;
40787;SDS011;26497;52.494;7.546;2022-10-31T12:47:40;21.10;;;8.90;;
40787;SDS011;26497;52.494;7.546;2022-10-31T12:50:29;16.25;;;8.82;;
40787;SDS011;26497;52.494;7.546;2022-10-31T12:53:17;25.92;;;10.95;;
40787;SDS011;26497;52.494;7.546;2022-10-31T12:56:01;21.58;;;10.68;;
40787;SDS011;26497;52.494;7.546;2022-10-31T12:58:46;16.20;;;9.70;;
40787;SDS011;26497;52.494;7.546;2022-10-31T13:01:22;14.13;;;9.57;;
40787;SDS011;26497;52.494;7.546;2022-10-31T13:03:57;17.50;;;11.60;;
40787;SDS011;26497;52.494;7.546;2022-10-31T13:06:30;16.80;;;9.98;;
40787;SDS011;26497;52.494;7.546;2022-10-31T13:09:05;23.00;;;10.02;;
40787;SDS011;26497;52.494;7.546;2022-10-31T13:11:38;16.98;;;9.55;;
40787;SDS011;26497;52.494;7.546;2022-10-31T13:14:11;19.88;;;11.95;;
40787;SDS011;26497;52.494;7.546;2022-10-31T13:16:48;18.95;;;10.55;;
40787;SDS011;26497;52.494;7.546;2022-10-31T13:19:16;12.80;;;8.45;;
40787;SDS011;26497;52.494;7.546;2022-10-31T13:21:50;19.03;;;8.57;;
40787;SDS011;26497;52.494;7.546;2022-10-31T13:24:26;17.25;;;8.77;;
40787;SDS011;26497;52.494;7.546;2022-10-31T13:27:11;17.52;;;8.95;;
40787;SDS011;26497;52.494;7.546;2022-10-31T13:29:46;12.95;;;8.95;;
40787;SDS011;26497;52.494;7.546;2022-10-31T13:32:25;18.00;;;8.65;;
40787;SDS011;26497;52.494;7.546;2022-10-31T13:34:55;22.70;;;9.27;;
40787;SDS011;26497;52.494;7.546;2022-10-31T13:37:26;16.42;;;9.13;;
40787;SDS011;26497;52.494;7.546;2022-10-31T13:40:06;15.18;;;8.50;;
40787;SDS011;26497;52.494;7.546;2022-10-31T13:42:53;17.45;;;8.50;;
40787;SDS011;26497;52.494;7.546;2022-10-31T13:45:27;12.18;;;7.78;;
40787;SDS011;26497;52.494;7.546;2022-10-31T13:47:55;19.83;;;8.52;;
40787;SDS011;26497;52.494;7.546;2022-10-31T13:50:25;14.27;;;7.57;;
40787;SDS011;26497;52.494;7.546;2022-10-31T13:53:09;14.88;;;8.45;;
40787;SDS011;26497;52.494;7.546;2022-10-31T13:55:39;14.93;;;8.18;;
40787;SDS011;26497;52.494;7.546;2022-10-31T13:58:21;21.52;;;9.02;;
40787;SDS011;26497;52.494;7.546;2022-10-31T14:00:58;14.77;;;8.57;;
40787;SDS011;26497;52.494;7.546;2022-10-31T14:03:38;17.90;;;9.30;;
40787;SDS011;26497;52.494;7.546;2022-10-31T14:06:08;16.00;;;9.75;;
40787;SDS011;26497;52.494;7.546;2022-10-31T14:08:37;18.23;;;10.60;;
40787;SDS011;26497;52.494;7.546;2022-10-31T14:11:18;20.23;;;9.80;;
40787;SDS011;26497;52.494;7.546;2022-10-31T14:13:53;22.88;;;11.55;;
40787;SDS011;26497;52.494;7.546;2022-10-31T14:16:23;24.47;;;11.27;;
40787;SDS011;26497;52.494;7.546;2022-10-31T14:18:57;22.95;;;11.38;;
40787;SDS011;26497;52.494;7.546;2022-10-31T14:21:27;19.58;;;11.52;;
40787;SDS011;26497;52.494;7.546;2022-10-31T14:23:56;17.33;;;10.98;;
40787;SDS011;26497;52.494;7.546;2022-10-31T14:26:31;39.90;;;20.23;;
40787;SDS011;26497;52.494;7.546;2022-10-31T14:29:20;67.35;;;33.10;;
40787;SDS011;26497;52.494;7.546;2022-10-31T14:31:52;31.83;;;19.13;;
40787;SDS011;26497;52.494;7.546;2022-10-31T14:34:23;26.10;;;14.27;;
40787;SDS011;26497;52.494;7.546;2022-10-31T14:37:01;25.35;;;12.60;;
40787;SDS011;26497;52.494;7.546;2022-10-31T14:39:54;32.35;;;12.00;;
40787;SDS011;26497;52.494;7.546;2022-10-31T14:42:41;29.00;;;12.63;;
40787;SDS011;26497;52.494;7.546;2022-10-31T14:45:27;21.63;;;12.10;;
40787;SDS011;26497;52.494;7.546;2022-10-31T14:48:10;20.17;;;13.15;;
40787;SDS011;26497;52.494;7.546;2022-10-31T14:50:51;20.23;;;11.32;;
40787;SDS011;26497;52.494;7.546;2022-10-31T14:53:20;20.85;;;11.93;;
40787;SDS011;26497;52.494;7.546;2022-10-31T14:55:54;22.75;;;12.50;;
40787;SDS011;26497;52.494;7.546;2022-10-31T14:58:23;22.60;;;12.30;;
40787;SDS011;26497;52.494;7.546;2022-10-31T15:00:59;25.02;;;12.20;;
40787;SDS011;26497;52.494;7.546;2022-10-31T15:03:28;21.17;;;9.18;;
40787;SDS011;26497;52.494;7.546;2022-10-31T15:06:12;14.75;;;9.90;;
40787;SDS011;26497;52.494;7.546;2022-10-31T15:08:44;19.23;;;8.95;;